createdAt,value
2022-12-14T00:00:57.355Z,80.42
2022-12-14T00:03:14.692Z,80.31
2022-12-14T00:05:32.117Z,80.73
2022-12-14T00:07:49.430Z,80.69
2022-12-14T00:10:06.389Z,80.65
2022-12-14T00:12:23.745Z,80.73
2022-12-14T00:14:43.705Z,80.34
2022-12-14T00:17:01.074Z,80.51
2022-12-14T00:19:19.384Z,80.49
2022-12-14T00:21:36.450Z,80.24
2022-12-14T00:23:54.792Z,80.30
2022-12-14T00:26:12.037Z,80.46
2022-12-14T00:28:29.395Z,80.74
2022-12-14T00:30:47.008Z,80.67
2022-12-14T00:33:04.150Z,80.88
2022-12-14T00:35:21.076Z,81.05
2022-12-14T00:37:38.073Z,80.86
2022-12-14T00:39:55.151Z,81.05
2022-12-14T00:42:12.112Z,81.26
2022-12-14T00:44:29.100Z,81.14
2022-12-14T00:46:46.006Z,81.21
2022-12-14T00:49:04.069Z,80.95
2022-12-14T00:51:22.164Z,80.97
2022-12-14T00:53:39.102Z,81.19
2022-12-14T00:55:56.221Z,81.02
2022-12-14T00:58:13.162Z,80.53
2022-12-14T01:00:30.206Z,80.56
2022-12-14T01:02:47.258Z,80.71
2022-12-14T01:05:04.497Z,80.52
2022-12-14T01:07:21.438Z,80.83
2022-12-14T01:09:38.507Z,80.74
2022-12-14T01:11:56.728Z,80.83
2022-12-14T01:14:14.049Z,80.58
2022-12-14T01:16:32.119Z,81.26
2022-12-14T01:18:49.242Z,80.79
2022-12-14T01:21:07.224Z,81.04
2022-12-14T01:23:24.729Z,81.29
2022-12-14T01:25:42.234Z,81.08
2022-12-14T01:27:59.522Z,81.48
2022-12-14T01:30:16.609Z,80.95
2022-12-14T01:32:33.642Z,80.96
2022-12-14T01:34:51.729Z,81.22
2022-12-14T01:37:09.684Z,80.79
2022-12-14T01:39:26.645Z,80.28
2022-12-14T01:41:43.636Z,80.54
2022-12-14T01:44:00.976Z,80.76
2022-12-14T01:46:18.009Z,80.92
2022-12-14T01:48:34.997Z,80.86
2022-12-14T01:50:52.882Z,80.91
2022-12-14T01:53:10.137Z,81.22
2022-12-14T01:55:27.099Z,80.52
2022-12-14T01:57:44.449Z,80.57
2022-12-14T02:00:06.850Z,80.60
2022-12-14T02:02:24.270Z,80.66
2022-12-14T02:04:41.264Z,80.53
2022-12-14T02:07:01.263Z,81.26
2022-12-14T02:09:18.433Z,80.72
2022-12-14T02:11:35.741Z,80.57
2022-12-14T02:13:52.741Z,80.25
2022-12-14T02:16:10.076Z,80.54
2022-12-14T02:18:27.773Z,80.57
2022-12-14T02:20:44.758Z,80.96
2022-12-14T02:23:02.031Z,80.38
2022-12-14T02:25:18.997Z,80.06
2022-12-14T02:27:35.917Z,79.64
2022-12-14T02:29:52.989Z,80.36
2022-12-14T02:32:09.907Z,80.31
2022-12-14T02:34:26.971Z,80.90
2022-12-14T02:36:44.263Z,79.93
2022-12-14T02:39:01.272Z,79.98
2022-12-14T02:41:18.318Z,79.91
2022-12-14T02:43:35.588Z,79.52
2022-12-14T02:45:52.640Z,79.98
2022-12-14T02:48:09.773Z,80.00
2022-12-14T02:50:26.747Z,79.79
2022-12-14T02:52:43.954Z,79.97
2022-12-14T02:55:00.954Z,79.97
2022-12-14T02:57:18.171Z,80.03
2022-12-14T02:59:35.196Z,79.94
2022-12-14T03:01:53.336Z,80.37
2022-12-14T03:04:11.499Z,79.95
2022-12-14T03:06:28.481Z,80.44
2022-12-14T03:08:45.566Z,79.95
2022-12-14T03:11:02.643Z,79.66
2022-12-14T03:13:19.717Z,79.66
2022-12-14T03:15:36.917Z,79.84
2022-12-14T03:17:54.291Z,78.90
2022-12-14T03:20:11.592Z,79.20
2022-12-14T03:22:28.737Z,79.92
2022-12-14T03:24:46.792Z,79.55
2022-12-14T03:27:04.799Z,79.55
2022-12-14T03:29:22.022Z,79.85
2022-12-14T03:31:38.985Z,79.79
2022-12-14T03:33:56.298Z,79.75
2022-12-14T03:36:13.333Z,79.62
2022-12-14T03:38:30.259Z,79.35
2022-12-14T03:40:48.546Z,79.80
2022-12-14T03:43:05.525Z,79.33
2022-12-14T03:45:23.902Z,79.91
2022-12-14T03:47:40.913Z,79.51
2022-12-14T03:49:58.963Z,79.54
2022-12-14T03:52:16.064Z,79.15
2022-12-14T03:54:34.292Z,79.38
2022-12-14T03:56:53.321Z,79.11
2022-12-14T03:59:10.506Z,79.34
2022-12-14T04:01:28.641Z,79.45
2022-12-14T04:03:45.698Z,79.31
2022-12-14T04:06:02.995Z,79.06
2022-12-14T04:08:20.012Z,79.21
2022-12-14T04:10:37.385Z,79.11
2022-12-14T04:12:55.338Z,79.09
2022-12-14T04:15:12.308Z,78.96
2022-12-14T04:17:29.180Z,78.57
2022-12-14T04:19:49.630Z,78.60
2022-12-14T04:22:06.758Z,78.83
2022-12-14T04:24:23.798Z,78.84
2022-12-14T04:26:41.998Z,79.03
2022-12-14T04:28:59.117Z,78.53
2022-12-14T04:31:16.554Z,78.62
2022-12-14T04:33:33.935Z,79.05
2022-12-14T04:35:50.998Z,78.80
2022-12-14T04:38:08.407Z,78.27
2022-12-14T04:40:25.354Z,78.67
2022-12-14T04:42:42.646Z,78.26
2022-12-14T04:45:01.265Z,78.36
2022-12-14T04:47:18.607Z,78.41
2022-12-14T04:49:35.659Z,78.28
2022-12-14T04:51:52.594Z,78.36
2022-12-14T04:54:09.959Z,78.76
2022-12-14T04:56:26.833Z,78.14
2022-12-14T04:58:43.934Z,78.52
2022-12-14T05:01:00.881Z,78.77
2022-12-14T05:03:18.154Z,78.66
2022-12-14T05:05:35.512Z,78.51
2022-12-14T05:07:52.505Z,78.39
2022-12-14T05:10:09.578Z,77.48
2022-12-14T05:12:26.543Z,77.84
2022-12-14T05:14:44.517Z,77.70
2022-12-14T05:17:07.950Z,77.93
2022-12-14T05:19:25.996Z,78.68
2022-12-14T05:21:43.346Z,78.75
2022-12-14T05:24:00.308Z,78.60
2022-12-14T05:26:18.356Z,79.23
2022-12-14T05:28:35.348Z,78.56
2022-12-14T05:30:52.795Z,79.38
2022-12-14T05:33:11.317Z,78.69
2022-12-14T05:35:28.653Z,78.48
2022-12-14T05:37:45.712Z,79.03
2022-12-14T05:40:06.445Z,78.61
2022-12-14T05:42:23.562Z,78.79
2022-12-14T05:44:40.525Z,78.94
2022-12-14T05:46:57.793Z,78.85
2022-12-14T05:49:14.832Z,79.33
2022-12-14T05:51:31.920Z,79.68
2022-12-14T05:53:49.043Z,79.54
2022-12-14T05:56:06.098Z,79.92
2022-12-14T05:58:23.103Z,80.04
2022-12-14T06:00:40.089Z,80.51
2022-12-14T06:02:57.542Z,80.46
2022-12-14T06:05:14.439Z,80.26
2022-12-14T06:07:31.650Z,80.42
2022-12-14T06:09:48.727Z,80.76
2022-12-14T06:12:06.858Z,81.08
2022-12-14T06:14:23.812Z,81.48
2022-12-14T06:16:41.849Z,81.28
2022-12-14T06:18:59.030Z,81.62
2022-12-14T06:21:16.008Z,82.46
2022-12-14T06:23:33.103Z,82.56
2022-12-14T06:25:50.428Z,82.45
2022-12-14T06:28:08.511Z,82.22
2022-12-14T06:30:25.511Z,83.02
2022-12-14T06:32:42.541Z,82.75
2022-12-14T06:34:59.637Z,83.14
2022-12-14T06:37:16.956Z,83.37
2022-12-14T06:39:33.984Z,84.44
2022-12-14T06:41:51.406Z,83.80
2022-12-14T06:44:09.494Z,84.24
2022-12-14T06:46:26.811Z,84.27
2022-12-14T06:48:44.112Z,84.78
2022-12-14T06:51:01.380Z,85.16
2022-12-14T06:53:18.725Z,85.33
2022-12-14T06:55:36.016Z,85.26
2022-12-14T06:57:52.940Z,85.65
2022-12-14T07:00:09.898Z,85.58
2022-12-14T07:02:27.082Z,85.58
2022-12-14T07:04:44.550Z,85.68
2022-12-14T07:07:01.486Z,85.59
2022-12-14T07:09:18.421Z,85.62
2022-12-14T07:11:35.312Z,85.54
2022-12-14T07:13:52.213Z,85.38
2022-12-14T07:16:09.200Z,84.65
2022-12-14T07:18:26.515Z,85.33
2022-12-14T07:20:44.710Z,85.25
2022-12-14T07:23:01.668Z,85.60
2022-12-14T07:25:18.742Z,85.17
2022-12-14T07:27:36.060Z,85.27
2022-12-14T07:29:54.119Z,85.01
2022-12-14T07:32:12.024Z,84.93
2022-12-14T07:34:29.047Z,85.28
2022-12-14T07:36:46.021Z,84.67
2022-12-14T07:39:02.954Z,85.02
2022-12-14T07:41:22.769Z,85.54
2022-12-14T07:43:40.616Z,85.03
2022-12-14T07:45:57.585Z,84.90
2022-12-14T07:48:14.641Z,85.33
2022-12-14T07:50:31.755Z,85.36
2022-12-14T07:52:48.706Z,84.73
2022-12-14T07:55:05.643Z,84.95
2022-12-14T07:57:22.528Z,84.55
2022-12-14T07:59:39.465Z,84.42
2022-12-14T08:01:56.593Z,84.69
2022-12-14T08:04:13.837Z,84.97
2022-12-14T08:06:30.959Z,84.79
2022-12-14T08:08:48.015Z,84.60
2022-12-14T08:11:06.104Z,84.44
2022-12-14T08:13:23.328Z,84.44
2022-12-14T08:15:40.279Z,84.59
2022-12-14T08:17:57.647Z,84.11
2022-12-14T08:20:14.955Z,83.76
2022-12-14T08:22:31.982Z,83.53
2022-12-14T08:24:49.558Z,83.74
2022-12-14T08:27:06.922Z,84.27
2022-12-14T08:29:23.937Z,83.41
2022-12-14T08:31:41.264Z,83.76
2022-12-14T08:33:58.594Z,83.01
2022-12-14T08:36:15.737Z,83.49
2022-12-14T08:38:33.038Z,83.23
2022-12-14T08:40:50.375Z,83.15
2022-12-14T08:43:07.607Z,83.31
2022-12-14T08:45:24.942Z,84.06
2022-12-14T08:47:42.025Z,83.89
2022-12-14T08:49:59.053Z,83.54
2022-12-14T08:52:16.357Z,83.97
2022-12-14T08:54:33.496Z,84.01
2022-12-14T08:56:50.818Z,83.67
2022-12-14T08:59:07.866Z,83.20
2022-12-14T09:01:32.089Z,83.42
2022-12-14T09:03:50.660Z,83.50
2022-12-14T09:06:07.805Z,82.98
2022-12-14T09:08:24.831Z,82.52
2022-12-14T09:10:41.885Z,82.51
2022-12-14T09:12:59.233Z,82.49
2022-12-14T09:15:16.126Z,83.06
2022-12-14T09:17:33.084Z,83.33
2022-12-14T09:19:50.324Z,83.63
2022-12-14T09:22:07.384Z,83.13
2022-12-14T09:24:24.517Z,83.90
2022-12-14T09:26:41.796Z,83.77
2022-12-14T09:28:58.792Z,83.86
2022-12-14T09:31:16.044Z,83.67
2022-12-14T09:33:34.511Z,83.33
2022-12-14T09:35:51.860Z,84.36
2022-12-14T09:38:08.763Z,83.90
2022-12-14T09:40:26.111Z,83.21
2022-12-14T09:42:43.084Z,82.79
2022-12-14T09:45:07.535Z,83.19
2022-12-14T09:47:24.790Z,83.02
2022-12-14T09:49:41.874Z,83.06
2022-12-14T09:51:58.884Z,83.09
2022-12-14T09:54:16.166Z,82.88
2022-12-14T09:56:33.154Z,83.28
2022-12-14T09:58:50.201Z,83.27
2022-12-14T10:01:07.288Z,83.47
2022-12-14T10:03:24.359Z,83.35
2022-12-14T10:05:41.506Z,83.22
2022-12-14T10:07:58.598Z,83.23
2022-12-14T10:10:15.431Z,83.68
2022-12-14T10:12:34.441Z,84.04
2022-12-14T10:14:51.727Z,83.80
2022-12-14T10:17:08.758Z,84.35
2022-12-14T10:19:25.861Z,84.00
2022-12-14T10:21:43.164Z,83.84
2022-12-14T10:24:00.260Z,84.28
2022-12-14T10:26:17.607Z,84.90
2022-12-14T10:28:34.667Z,84.27
2022-12-14T10:30:51.750Z,84.22
2022-12-14T10:33:08.759Z,84.07
2022-12-14T10:35:26.074Z,84.01
2022-12-14T10:37:43.067Z,84.00
2022-12-14T10:40:00.143Z,83.99
2022-12-14T10:42:17.227Z,83.80
2022-12-14T10:44:34.328Z,83.96
2022-12-14T10:46:51.369Z,84.10
2022-12-14T10:49:08.398Z,84.94
2022-12-14T10:51:25.327Z,84.98
2022-12-14T10:53:42.603Z,85.24
2022-12-14T10:56:00.494Z,85.13
2022-12-14T10:58:17.542Z,84.96
2022-12-14T11:00:34.613Z,85.50
2022-12-14T11:02:52.097Z,84.53
2022-12-14T11:05:09.242Z,84.16
2022-12-14T11:07:26.307Z,84.39
2022-12-14T11:09:43.205Z,84.44
2022-12-14T11:12:00.217Z,84.59
2022-12-14T11:14:17.543Z,84.07
2022-12-14T11:16:36.671Z,84.02
2022-12-14T11:18:54.285Z,83.91
2022-12-14T11:21:11.358Z,83.23
2022-12-14T11:23:29.372Z,83.68
2022-12-14T11:25:47.688Z,83.25
2022-12-14T11:28:04.699Z,83.39
2022-12-14T11:30:22.144Z,83.55
2022-12-14T11:32:39.119Z,83.31
2022-12-14T11:34:56.373Z,82.97
2022-12-14T11:37:13.346Z,82.30
2022-12-14T11:39:30.597Z,81.92
2022-12-14T11:41:48.539Z,82.05
2022-12-14T11:44:05.863Z,81.35
2022-12-14T11:46:23.533Z,82.77
2022-12-14T11:48:40.545Z,82.55
2022-12-14T11:50:57.594Z,82.79
2022-12-14T11:53:14.609Z,82.84
2022-12-14T11:55:31.691Z,82.66
2022-12-14T11:57:48.616Z,82.58
2022-12-14T12:00:05.878Z,82.56
2022-12-14T12:02:23.290Z,82.69
2022-12-14T12:04:40.571Z,82.91
2022-12-14T12:07:02.863Z,82.28
2022-12-14T12:09:21.605Z,82.17
2022-12-14T12:11:38.524Z,82.29
2022-12-14T12:13:55.840Z,83.06
2022-12-14T12:16:13.202Z,82.49
2022-12-14T12:18:30.831Z,83.26
2022-12-14T12:20:48.074Z,83.02
2022-12-14T12:23:06.201Z,83.07
2022-12-14T12:25:27.536Z,82.91
2022-12-14T12:27:45.615Z,83.17
2022-12-14T12:30:02.933Z,82.37
2022-12-14T12:32:21.178Z,82.16
2022-12-14T12:34:38.256Z,82.13
2022-12-14T12:37:24.648Z,82.34
2022-12-14T12:39:32.260Z,81.79
2022-12-14T12:41:50.450Z,81.91
2022-12-14T12:44:07.520Z,82.43
2022-12-14T12:46:24.543Z,81.92
2022-12-14T12:48:41.927Z,81.81
2022-12-14T12:50:58.874Z,81.47
2022-12-14T12:53:15.859Z,82.25
2022-12-14T12:55:33.033Z,82.37
2022-12-14T12:57:50.080Z,82.49
2022-12-14T13:00:07.333Z,82.10
2022-12-14T13:02:24.381Z,82.15
2022-12-14T13:04:41.867Z,82.34
2022-12-14T13:06:58.989Z,81.76
2022-12-14T13:09:16.727Z,81.72
2022-12-14T13:11:33.837Z,82.25
2022-12-14T13:13:51.849Z,82.23
2022-12-14T13:16:09.212Z,81.76
2022-12-14T13:18:56.584Z,81.96
2022-12-14T13:21:03.878Z,81.90
2022-12-14T13:23:44.297Z,82.20
2022-12-14T13:25:58.189Z,82.04
2022-12-14T13:28:15.184Z,82.11
2022-12-14T13:30:32.446Z,82.10
2022-12-14T13:32:49.704Z,81.50
2022-12-14T13:35:06.595Z,82.13
2022-12-14T13:37:23.583Z,82.57
2022-12-14T13:39:41.922Z,82.76
2022-12-14T13:41:59.309Z,82.09
2022-12-14T13:44:16.546Z,82.77
2022-12-14T13:46:33.557Z,82.53
2022-12-14T13:48:50.814Z,82.71
2022-12-14T13:51:08.127Z,82.45
2022-12-14T13:53:25.069Z,82.40
2022-12-14T13:55:41.973Z,81.57
2022-12-14T13:57:58.986Z,82.38
2022-12-14T14:00:16.193Z,82.06
2022-12-14T14:02:33.188Z,81.73
2022-12-14T14:04:50.208Z,81.74
2022-12-14T14:07:07.172Z,81.57
2022-12-14T14:09:24.529Z,81.75
2022-12-14T14:11:41.812Z,81.62
2022-12-14T14:13:58.847Z,81.17
2022-12-14T14:16:31.089Z,81.35
2022-12-14T14:18:48.117Z,81.43
2022-12-14T14:21:05.144Z,81.30
2022-12-14T14:23:23.122Z,81.34
2022-12-14T14:25:41.500Z,81.75
2022-12-14T14:27:58.597Z,81.85
2022-12-14T14:30:15.629Z,82.30
2022-12-14T14:32:32.601Z,81.98
2022-12-14T14:34:49.925Z,82.05
2022-12-14T14:37:07.493Z,81.81
2022-12-14T14:39:54.553Z,81.91
2022-12-14T14:42:01.742Z,82.40
2022-12-14T14:44:19.575Z,81.77
2022-12-14T14:46:36.614Z,82.18
2022-12-14T14:48:53.703Z,82.17
2022-12-14T14:51:10.613Z,81.39
2022-12-14T14:53:27.660Z,82.30
2022-12-14T14:55:54.249Z,81.51
2022-12-14T14:58:11.684Z,82.00
2022-12-14T15:00:29.029Z,81.69
2022-12-14T15:02:46.440Z,82.41
2022-12-14T15:05:40.525Z,82.08
2022-12-14T15:07:40.863Z,82.02
2022-12-14T15:09:57.825Z,81.84
2022-12-14T15:12:14.761Z,82.80
2022-12-14T15:14:31.746Z,82.26
2022-12-14T15:16:49.060Z,82.47
2022-12-14T15:19:06.119Z,82.96
2022-12-14T15:21:23.422Z,82.15
2022-12-14T15:23:40.317Z,83.26
2022-12-14T15:25:57.331Z,83.45
2022-12-14T15:28:15.521Z,83.72
2022-12-14T15:30:32.511Z,83.88
2022-12-14T15:32:49.433Z,84.02
2022-12-14T15:35:06.551Z,83.62
2022-12-14T15:37:23.585Z,84.34
2022-12-14T15:39:40.496Z,84.38
2022-12-14T15:41:57.541Z,84.04
2022-12-14T15:44:14.524Z,84.92
2022-12-14T15:46:32.482Z,84.94
2022-12-14T15:48:50.851Z,84.96
2022-12-14T15:51:09.237Z,84.65
2022-12-14T15:53:26.268Z,85.30
2022-12-14T15:55:43.416Z,84.62
2022-12-14T15:58:00.820Z,84.65
2022-12-14T16:00:17.859Z,84.88
2022-12-14T16:02:34.906Z,85.07
2022-12-14T16:04:52.323Z,85.02
2022-12-14T16:07:10.026Z,85.72
2022-12-14T16:09:27.120Z,85.18
2022-12-14T16:11:44.151Z,85.02
2022-12-14T16:14:01.090Z,85.50
2022-12-14T16:16:18.788Z,85.25
2022-12-14T16:18:35.882Z,85.57
2022-12-14T16:20:52.873Z,85.59
2022-12-14T16:23:11.769Z,85.51
2022-12-14T16:25:29.555Z,85.95
2022-12-14T16:27:46.811Z,85.95
2022-12-14T16:30:08.452Z,85.79
2022-12-14T16:32:25.802Z,85.52
2022-12-14T16:34:42.760Z,85.83
2022-12-14T16:37:32.246Z,85.98
2022-12-14T16:39:37.011Z,85.44
2022-12-14T16:41:54.311Z,85.77
2022-12-14T16:44:11.268Z,86.14
2022-12-14T16:46:28.563Z,86.19
2022-12-14T16:48:45.587Z,85.82
2022-12-14T16:51:14.497Z,85.82
2022-12-14T16:53:34.984Z,86.60
2022-12-14T16:55:53.422Z,85.85
2022-12-14T16:58:10.580Z,86.19
2022-12-14T17:00:27.784Z,86.07
2022-12-14T17:02:45.302Z,86.45
2022-12-14T17:05:02.389Z,86.81
2022-12-14T17:07:19.430Z,86.01
2022-12-14T17:09:36.455Z,86.61
2022-12-14T17:11:53.464Z,86.49
2022-12-14T17:14:10.329Z,86.48
2022-12-14T17:16:27.414Z,86.14
2022-12-14T17:18:44.471Z,86.40
2022-12-14T17:21:01.774Z,86.63
2022-12-14T17:23:18.768Z,86.98
2022-12-14T17:25:36.081Z,86.93
2022-12-14T17:27:54.285Z,86.47
2022-12-14T17:30:11.402Z,86.88
2022-12-14T17:32:28.691Z,86.88
2022-12-14T17:34:45.937Z,86.53
2022-12-14T17:37:02.926Z,86.01
2022-12-14T17:39:20.799Z,85.99
2022-12-14T17:41:38.011Z,86.10
2022-12-14T17:43:56.959Z,86.54
2022-12-14T17:46:15.752Z,85.98
2022-12-14T17:48:33.060Z,85.93
2022-12-14T17:50:50.042Z,85.89
2022-12-14T17:53:07.065Z,85.57
2022-12-14T17:55:24.315Z,86.04
2022-12-14T17:57:41.609Z,85.74
2022-12-14T17:59:58.556Z,85.81
2022-12-14T18:02:16.700Z,86.13
2022-12-14T18:04:34.155Z,85.44
2022-12-14T18:06:51.459Z,85.22
2022-12-14T18:09:08.492Z,85.38
2022-12-14T18:11:25.483Z,85.60
2022-12-14T18:13:42.499Z,86.17
2022-12-14T18:15:59.461Z,86.26
2022-12-14T18:18:16.402Z,85.79
2022-12-14T18:20:33.642Z,85.90
2022-12-14T18:22:50.700Z,85.57
2022-12-14T18:25:07.639Z,86.01
2022-12-14T18:27:24.716Z,85.99
2022-12-14T18:29:41.750Z,85.38
2022-12-14T18:31:58.855Z,85.50
2022-12-14T18:34:16.231Z,86.06
2022-12-14T18:36:33.273Z,86.28
2022-12-14T18:38:50.193Z,86.55
2022-12-14T18:41:07.395Z,86.54
2022-12-14T18:43:24.691Z,86.83
2022-12-14T18:45:41.915Z,87.00
2022-12-14T18:47:59.222Z,87.00
2022-12-14T18:50:16.273Z,86.87
2022-12-14T18:52:33.566Z,86.88
2022-12-14T18:54:50.612Z,86.62
2022-12-14T18:57:07.597Z,86.65
2022-12-14T18:59:24.873Z,86.82
2022-12-14T19:01:42.895Z,86.88
2022-12-14T19:03:59.988Z,86.93
2022-12-14T19:08:53.945Z,87.02
2022-12-14T19:11:11.069Z,86.95
2022-12-14T19:13:28.403Z,86.21
2022-12-14T19:15:45.730Z,87.11
2022-12-14T19:18:03.081Z,86.12
2022-12-14T19:20:20.438Z,86.68
2022-12-14T19:22:37.359Z,87.00
2022-12-14T19:24:54.419Z,86.73
2022-12-14T19:27:11.678Z,86.69
2022-12-14T19:29:28.970Z,86.71
2022-12-14T19:31:46.187Z,86.36
2022-12-14T19:34:03.279Z,86.72
2022-12-14T19:36:20.593Z,86.43
2022-12-14T19:38:37.634Z,86.69
2022-12-14T19:40:54.542Z,86.53
2022-12-14T19:43:11.559Z,86.28
2022-12-14T19:45:28.439Z,86.33
2022-12-14T19:47:45.464Z,86.58
2022-12-14T19:50:02.516Z,86.70
2022-12-14T19:52:19.724Z,86.24
2022-12-14T19:54:36.965Z,86.27
2022-12-14T19:56:54.907Z,86.28
2022-12-14T19:59:11.878Z,86.52
2022-12-14T20:01:29.281Z,86.85
2022-12-14T20:03:46.416Z,86.56
2022-12-14T20:06:03.934Z,85.95
2022-12-14T20:08:21.226Z,85.83
2022-12-14T20:10:38.207Z,85.59
2022-12-14T20:12:55.142Z,85.69
2022-12-14T20:15:12.084Z,86.24
2022-12-14T20:17:29.060Z,86.58
2022-12-14T20:19:46.351Z,86.71
2022-12-14T20:22:03.280Z,86.50
2022-12-14T20:24:20.567Z,87.16
2022-12-14T20:26:37.621Z,87.02
2022-12-14T20:28:54.610Z,86.70
2022-12-14T20:31:12.617Z,85.88
2022-12-14T20:33:31.037Z,85.97
2022-12-14T20:35:48.262Z,86.16
2022-12-14T20:38:05.277Z,86.43
2022-12-14T20:40:22.232Z,86.75
2022-12-14T20:42:39.132Z,86.45
2022-12-14T20:44:56.157Z,86.31
2022-12-14T20:47:13.224Z,86.97
2022-12-14T20:49:30.304Z,87.03
2022-12-14T20:51:47.597Z,86.60
2022-12-14T20:54:04.646Z,86.44
2022-12-14T20:56:21.650Z,86.71
2022-12-14T20:58:38.680Z,86.28
2022-12-14T21:00:55.701Z,86.39
2022-12-14T21:03:12.921Z,86.10
2022-12-14T21:05:31.332Z,86.63
2022-12-14T21:07:48.390Z,86.74
2022-12-14T21:10:05.361Z,86.32
2022-12-14T21:12:22.710Z,86.83
2022-12-14T21:14:39.785Z,86.79
2022-12-14T21:16:56.731Z,86.85
2022-12-14T21:19:14.088Z,86.88
2022-12-14T21:21:31.076Z,86.71
2022-12-14T21:23:48.345Z,86.92
2022-12-14T21:26:06.626Z,86.88
2022-12-14T21:28:27.531Z,87.01
2022-12-14T21:30:48.937Z,86.57
2022-12-14T21:33:05.969Z,86.80
2022-12-14T21:35:22.864Z,86.70
2022-12-14T21:37:40.250Z,86.52
2022-12-14T21:39:57.232Z,86.75
2022-12-14T21:42:14.092Z,86.51
2022-12-14T21:44:31.201Z,86.52
2022-12-14T21:46:48.145Z,86.61
2022-12-14T21:49:05.314Z,86.99
2022-12-14T21:51:22.582Z,86.77
2022-12-14T21:53:40.020Z,87.21
2022-12-14T21:55:58.432Z,87.34
2022-12-14T21:58:15.419Z,87.17
2022-12-14T22:00:32.454Z,87.60
2022-12-14T22:02:49.690Z,87.72
2022-12-14T22:05:06.777Z,87.17
2022-12-14T22:07:23.762Z,87.63
2022-12-14T22:09:40.754Z,87.03
2022-12-14T22:11:58.642Z,87.65
2022-12-14T22:14:15.569Z,87.09
2022-12-14T22:16:32.626Z,87.86
2022-12-14T22:18:49.609Z,87.96
2022-12-14T22:21:06.927Z,87.84
2022-12-14T22:23:24.253Z,87.15
2022-12-14T22:25:41.206Z,87.41
2022-12-14T22:27:58.453Z,87.06
2022-12-14T22:30:15.506Z,87.89
2022-12-14T22:32:32.474Z,87.80
2022-12-14T22:34:49.352Z,87.71
2022-12-14T22:37:06.322Z,87.69
2022-12-14T22:39:23.283Z,87.90
2022-12-14T22:41:41.550Z,87.73
2022-12-14T22:43:59.521Z,87.46
2022-12-14T22:46:16.608Z,87.65
2022-12-14T22:48:33.647Z,86.78
2022-12-14T22:50:51.015Z,86.92
2022-12-14T22:53:07.932Z,87.11
2022-12-14T22:55:24.941Z,86.86
2022-12-14T22:57:41.946Z,87.32
2022-12-14T22:59:58.994Z,87.50
2022-12-14T23:02:16.331Z,87.19
2022-12-14T23:04:33.470Z,87.10
2022-12-14T23:06:51.597Z,87.19
2022-12-14T23:09:08.679Z,87.19
2022-12-14T23:11:27.584Z,87.64
2022-12-14T23:13:44.562Z,87.50
2022-12-14T23:16:01.462Z,87.26
2022-12-14T23:18:18.626Z,87.29
2022-12-14T23:20:35.632Z,87.37
2022-12-14T23:22:52.591Z,86.46
2022-12-14T23:25:09.934Z,87.08
2022-12-14T23:27:27.277Z,87.16
2022-12-14T23:29:44.283Z,86.80
2022-12-14T23:32:01.361Z,86.69
2022-12-14T23:34:18.457Z,87.27
2022-12-14T23:36:35.439Z,87.14
2022-12-14T23:38:52.402Z,86.59
2022-12-14T23:41:09.331Z,86.58
2022-12-14T23:43:26.362Z,86.84
2022-12-14T23:45:44.474Z,86.92
2022-12-14T23:48:01.467Z,87.27
2022-12-14T23:50:18.399Z,87.34
2022-12-14T23:52:35.341Z,87.03
2022-12-14T23:54:52.426Z,87.24
2022-12-14T23:57:09.626Z,86.94
2022-12-14T23:59:31.992Z,87.17
